Terminal Aerodrome Forecast
Issued by NWS Sterling, VA

Current Version | Previous Version | Text Only | Print | Product List | Glossary On
Versions: 1 2 3 4 5 6 7 8 9 10 11 12 13 14 15 16 17 18 19 20 21 22 23 24 25 26 27
000
FTUS41 KLWX 211720
TAFDCA
TAF
KDCA 211720Z 2118/2224 21012G20KT P6SM FEW035 SCT200
     FM220300 26006KT P6SM SCT025 BKN070
     FM220600 36007KT 6SM -DZ BR SCT025 OVC035
     FM221200 03008KT 6SM -RADZ BR SCT025 OVC035
     FM221500 04008KT 2SM -RADZ BR BKN008 OVC025=

USA.gov is the U.S. government's official web portal to all federal, state and local government web resources and services.